Time;durP1;ratioP1;P1;durP2;ratioP2;P2;SDS_P1;SDS_P2;PMS_P1;PMS_P2;Temp;Humidity;BMP_temperature;BMP_pressure;BME280_temperature;BME280_humidity;BME280_pressure;Samples;Min_cycle;Max_cycle;Signal;HPM_P1;HPM_P2
2022/10/15 00:01:05;;;;;;;2.07;0.30;;;14.50;99.90;;;;;;4862086;29;20185;-90
2022/10/15 00:03:34;;;;;;;0.30;0.30;;;14.60;99.90;;;;;;4862035;29;20187;-89
2022/10/15 00:06:04;;;;;;;0.50;0.50;;;14.50;99.90;;;;;;4861892;29;20261;-89
2022/10/15 00:08:44;;;;;;;1.27;0.50;;;14.50;99.90;;;;;;4861618;29;20204;-90
2022/10/15 00:11:13;;;;;;;1.60;0.47;;;14.50;99.90;;;;;;4861834;29;20185;-90
2022/10/15 00:13:39;;;;;;;1.07;0.43;;;14.50;99.90;;;;;;4861550;29;20673;-90
2022/10/15 00:16:12;;;;;;;0.73;0.40;;;14.60;99.90;;;;;;4861660;29;20195;-90
2022/10/15 00:18:39;;;;;;;2.63;0.50;;;14.60;99.90;;;;;;4861525;29;20280;-90
2022/10/15 00:21:15;;;;;;;0.50;0.50;;;14.60;99.90;;;;;;4861584;29;20198;-90
2022/10/15 00:23:41;;;;;;;1.07;0.50;;;14.60;99.90;;;;;;4862153;29;20184;-90
2022/10/15 00:26:11;;;;;;;2.00;0.50;;;14.60;99.90;;;;;;4861514;29;20197;-90
2022/10/15 00:28:37;;;;;;;0.47;0.47;;;14.60;99.90;;;;;;4861436;29;20261;-90
2022/10/15 00:31:10;;;;;;;0.40;0.40;;;14.60;99.90;;;;;;4861193;29;20259;-90
2022/10/15 00:33:36;;;;;;;0.30;0.30;;;14.60;99.90;;;;;;4861741;29;20276;-90
2022/10/15 00:36:06;;;;;;;0.93;0.50;;;14.60;99.90;;;;;;4861311;29;20216;-89
2022/10/15 00:38:33;;;;;;;0.30;0.30;;;14.60;99.90;;;;;;4855218;29;20714;-90
2022/10/15 00:40:59;;;;;;;0.50;0.40;;;14.60;99.90;;;;;;4827963;29;20181;-90
2022/10/15 00:43:49;;;;;;;0.93;0.40;;;14.70;99.90;;;;;;4827988;29;20234;-89
2022/10/15 00:46:41;;;;;;;0.87;0.30;;;14.60;99.90;;;;;;4837225;29;20177;-90
2022/10/15 00:49:11;;;;;;;0.37;0.37;;;14.70;99.90;;;;;;4861334;29;20211;-90
2022/10/15 00:51:43;;;;;;;0.93;0.30;;;14.70;99.90;;;;;;4861113;29;20208;-90
2022/10/15 00:54:12;;;;;;;0.27;0.27;;;14.70;99.90;;;;;;4860997;29;20271;-89
2022/10/15 00:56:40;;;;;;;0.40;0.40;;;14.70;99.90;;;;;;4845910;29;20204;-90
2022/10/15 00:59:08;;;;;;;0.40;0.30;;;14.70;99.90;;;;;;4860343;29;20634;-90
2022/10/15 01:05:00;;;;;;;0.40;0.40;;;14.70;99.90;;;;;;4876385;29;20196;-90
2022/10/15 01:07:26;;;;;;;0.40;0.40;;;14.70;99.90;;;;;;4860585;29;20185;-90
2022/10/15 01:09:52;;;;;;;0.30;0.30;;;14.70;99.90;;;;;;4860785;29;20207;-89
2022/10/15 01:12:42;;;;;;;0.37;0.37;;;14.70;99.90;;;;;;4860871;29;20204;-90
2022/10/15 01:15:13;;;;;;;0.30;0.30;;;14.70;99.90;;;;;;4860777;29;20307;-90
2022/10/15 01:17:42;;;;;;;0.40;0.30;;;14.60;99.90;;;;;;4860345;29;20266;-90
2022/10/15 01:20:30;;;;;;;0.30;0.30;;;14.70;99.90;;;;;;4860999;29;20248;-90
2022/10/15 01:23:21;;;;;;;0.93;0.37;;;14.70;99.90;;;;;;4861346;29;20681;-90
2022/10/15 01:25:53;;;;;;;0.30;0.30;;;14.70;99.90;;;;;;4860886;29;20302;-90
2022/10/15 01:28:50;;;;;;;0.40;0.40;;;14.70;99.90;;;;;;4860507;29;20638;-90
2022/10/15 01:31:46;;;;;;;0.40;0.33;;;14.70;99.90;;;;;;4859784;29;20192;-90
2022/10/15 01:34:36;;;;;;;0.40;0.40;;;14.70;99.90;;;;;;4860169;29;20216;-89
2022/10/15 01:37:23;;;;;;;0.47;0.47;;;14.70;99.90;;;;;;4860311;29;20173;-90
2022/10/15 01:40:00;;;;;;;0.57;0.30;;;14.70;99.90;;;;;;4860008;29;20197;-89
2022/10/15 01:42:35;;;;;;;0.90;0.40;;;14.70;99.90;;;;;;4860393;29;20204;-90
2022/10/15 01:45:17;;;;;;;0.23;0.20;;;14.70;99.90;;;;;;4860494;29;20176;-89
2022/10/15 01:48:08;;;;;;;1.07;0.30;;;14.70;99.90;;;;;;4862367;29;20173;-90
2022/10/15 01:50:38;;;;;;;0.30;0.30;;;14.70;99.90;;;;;;4859977;29;20211;-89
2022/10/15 01:53:06;;;;;;;1.07;0.40;;;14.80;99.90;;;;;;4860325;29;20205;-90
2022/10/15 01:55:36;;;;;;;1.03;0.40;;;14.80;99.90;;;;;;4859328;29;20223;-90
2022/10/15 01:58:04;;;;;;;1.40;0.40;;;14.80;99.90;;;;;;4860043;29;20262;-90
2022/10/15 02:00:30;;;;;;;0.77;0.40;;;14.80;99.90;;;;;;4859972;29;20185;-90
2022/10/15 02:03:01;;;;;;;0.40;0.30;;;14.80;99.90;;;;;;4860949;29;20208;-90
2022/10/15 02:05:45;;;;;;;1.47;0.30;;;14.80;99.90;;;;;;4859795;29;20196;-89
2022/10/15 02:08:42;;;;;;;0.20;0.20;;;14.80;99.90;;;;;;4859474;29;20211;-89
2022/10/15 02:11:13;;;;;;;0.50;0.40;;;14.80;99.90;;;;;;4859921;29;20180;-90
2022/10/15 02:13:42;;;;;;;0.80;0.30;;;14.80;99.90;;;;;;4859731;29;20213;-89
2022/10/15 02:16:24;;;;;;;0.53;0.37;;;14.80;99.90;;;;;;4859928;29;20188;-90
2022/10/15 02:19:02;;;;;;;0.67;0.50;;;14.80;99.90;;;;;;4859620;29;20233;-89
2022/10/15 02:21:43;;;;;;;0.40;0.40;;;14.80;99.90;;;;;;4859609;29;20212;-90
2022/10/15 02:24:28;;;;;;;2.17;0.37;;;14.80;99.90;;;;;;4860018;29;20187;-90
2022/10/15 02:26:57;;;;;;;0.50;0.40;;;14.80;99.90;;;;;;4859485;29;20185;-90
2022/10/15 02:29:26;;;;;;;1.43;0.40;;;14.80;99.90;;;;;;4859685;29;20192;-90
2022/10/15 02:31:55;;;;;;;0.30;0.30;;;14.80;99.90;;;;;;4859403;29;20221;-90
2022/10/15 02:34:26;;;;;;;2.03;0.40;;;14.90;99.90;;;;;;4859243;29;20215;-90
2022/10/15 02:36:53;;;;;;;0.87;0.43;;;14.90;99.90;;;;;;4859349;29;20185;-90
2022/10/15 02:39:23;;;;;;;0.40;0.33;;;14.80;99.90;;;;;;4859531;29;20187;-90
2022/10/15 02:41:50;;;;;;;3.23;0.40;;;14.90;99.90;;;;;;4859308;29;20196;-90
2022/10/15 02:44:16;;;;;;;0.87;0.40;;;14.90;99.90;;;;;;4859747;29;20197;-90
2022/10/15 02:46:42;;;;;;;0.30;0.30;;;14.90;99.90;;;;;;4859333;29;20189;-90
2022/10/15 02:49:09;;;;;;;0.30;0.30;;;14.90;99.90;;;;;;4859459;29;20185;-90
2022/10/15 02:51:36;;;;;;;0.50;0.30;;;14.90;99.90;;;;;;4859135;29;20227;-89
2022/10/15 02:54:04;;;;;;;3.50;0.50;;;14.90;99.90;;;;;;4843948;29;20270;-90
2022/10/15 02:56:30;;;;;;;0.40;0.40;;;14.90;99.90;;;;;;4843778;29;20195;-90
2022/10/15 02:58:56;;;;;;;0.60;0.30;;;14.90;99.90;;;;;;4843932;29;20188;-90
2022/10/15 03:01:22;;;;;;;1.00;0.30;;;14.90;99.90;;;;;;4843599;29;20200;-89
2022/10/15 03:03:48;;;;;;;0.57;0.40;;;14.90;99.90;;;;;;4843766;29;20180;-90
2022/10/15 03:06:14;;;;;;;1.30;0.50;;;14.90;99.90;;;;;;4843141;29;20199;-90
2022/10/15 03:08:41;;;;;;;1.40;0.40;;;14.90;99.90;;;;;;4843867;29;20192;-89
2022/10/15 03:11:08;;;;;;;1.50;0.30;;;14.90;99.90;;;;;;4843765;29;20185;-89
2022/10/15 03:13:36;;;;;;;1.80;0.40;;;14.90;99.90;;;;;;4859151;29;20180;-90
2022/10/15 03:16:07;;;;;;;0.37;0.30;;;14.90;99.90;;;;;;4843949;29;20200;-90
2022/10/15 03:18:35;;;;;;;0.60;0.40;;;15.00;99.90;;;;;;4859084;29;20188;-90
2022/10/15 03:21:02;;;;;;;2.07;0.40;;;15.00;99.90;;;;;;4859872;29;20189;-87
2022/10/15 03:23:28;;;;;;;1.07;0.40;;;15.00;99.90;;;;;;4862613;29;20180;-89
2022/10/15 03:26:05;;;;;;;0.60;0.50;;;15.00;99.90;;;;;;4862489;29;20207;-89
2022/10/15 03:28:32;;;;;;;0.40;0.40;;;15.00;99.90;;;;;;4862362;29;20219;-90
2022/10/15 03:30:59;;;;;;;0.33;0.33;;;15.00;99.90;;;;;;4862310;29;20180;-90
2022/10/15 03:33:25;;;;;;;0.30;0.30;;;15.10;99.90;;;;;;4862767;29;20204;-90
2022/10/15 03:35:53;;;;;;;0.50;0.37;;;15.10;99.90;;;;;;4862457;29;20220;-90
2022/10/15 03:38:19;;;;;;;2.13;0.57;;;15.10;99.90;;;;;;4862436;29;20236;-89
2022/10/15 03:40:46;;;;;;;0.40;0.40;;;15.20;99.90;;;;;;4862338;29;20185;-89
2022/10/15 03:43:41;;;;;;;0.30;0.30;;;15.20;99.90;;;;;;4862434;29;20185;-89
2022/10/15 03:46:08;;;;;;;0.40;0.40;;;15.20;99.90;;;;;;4862611;29;20189;-90
2022/10/15 03:48:38;;;;;;;1.80;0.33;;;15.20;99.90;;;;;;4862626;29;20208;-89
2022/10/15 03:51:04;;;;;;;1.20;0.50;;;15.20;99.90;;;;;;4861988;29;20235;-90
2022/10/15 03:53:30;;;;;;;0.40;0.40;;;15.30;99.90;;;;;;4862411;29;20195;-90
2022/10/15 03:56:03;;;;;;;0.87;0.57;;;15.30;99.90;;;;;;4861961;29;20735;-90
2022/10/15 03:58:29;;;;;;;0.30;0.30;;;15.30;99.90;;;;;;4861744;29;20188;-90
2022/10/15 04:00:59;;;;;;;2.00;0.40;;;15.30;99.90;;;;;;4861569;29;20180;-89
2022/10/15 04:03:25;;;;;;;1.40;0.50;;;15.30;99.90;;;;;;4846839;29;20184;-89
2022/10/15 04:05:52;;;;;;;0.40;0.40;;;15.30;99.90;;;;;;4862001;29;20196;-90
2022/10/15 04:08:20;;;;;;;0.97;0.50;;;15.30;99.90;;;;;;4862056;29;20307;-87
2022/10/15 04:10:46;;;;;;;2.20;0.50;;;15.30;99.90;;;;;;4861708;29;20264;-87
2022/10/15 04:13:12;;;;;;;0.60;0.40;;;15.30;99.90;;;;;;4861531;29;20208;-86
2022/10/15 04:15:39;;;;;;;0.60;0.60;;;15.30;99.90;;;;;;4861725;29;20219;-87
2022/10/15 04:18:09;;;;;;;1.13;0.60;;;15.30;99.90;;;;;;4861788;29;20638;-87
2022/10/15 04:20:36;;;;;;;0.87;0.43;;;15.30;99.90;;;;;;4861922;29;20256;-87
2022/10/15 04:23:14;;;;;;;1.53;0.47;;;15.30;99.90;;;;;;4862534;29;20206;-87
2022/10/15 04:25:46;;;;;;;0.50;0.50;;;15.30;99.90;;;;;;4861740;29;20225;-87
2022/10/15 04:28:16;;;;;;;0.50;0.40;;;15.30;99.90;;;;;;4861489;29;20223;-87
2022/10/15 04:30:45;;;;;;;0.83;0.70;;;15.30;99.90;;;;;;4861566;29;20189;-87
2022/10/15 04:33:12;;;;;;;2.30;0.47;;;15.30;99.90;;;;;;4860658;29;20220;-87
2022/10/15 04:35:39;;;;;;;0.50;0.47;;;15.30;99.90;;;;;;4861244;29;20281;-87
2022/10/15 04:38:11;;;;;;;0.33;0.33;;;15.30;99.90;;;;;;4862183;29;20204;-87
2022/10/15 04:41:05;;;;;;;1.47;0.50;;;15.30;99.90;;;;;;4861424;29;20245;-90
2022/10/15 04:43:58;;;;;;;0.40;0.40;;;15.30;99.90;;;;;;4861151;29;20200;-90
2022/10/15 04:46:26;;;;;;;0.40;0.40;;;15.30;99.90;;;;;;4866201;29;20189;-89
2022/10/15 04:48:56;;;;;;;0.63;0.40;;;15.30;99.90;;;;;;4866644;29;20200;-90
2022/10/15 04:51:24;;;;;;;0.87;0.40;;;15.20;99.90;;;;;;4860764;29;20205;-89
2022/10/15 04:54:06;;;;;;;0.40;0.40;;;15.30;99.90;;;;;;4860577;29;20208;-90
2022/10/15 04:56:35;;;;;;;0.60;0.43;;;15.20;99.90;;;;;;4859461;29;20184;-90
2022/10/15 04:59:06;;;;;;;0.77;0.50;;;15.20;99.90;;;;;;4859146;29;20195;-90
2022/10/15 05:01:51;;;;;;;0.40;0.40;;;15.20;99.90;;;;;;4860911;29;20250;-90
2022/10/15 05:04:26;;;;;;;1.20;0.40;;;15.20;99.90;;;;;;4860829;29;20194;-90
2022/10/15 05:06:52;;;;;;;0.83;0.50;;;15.20;99.90;;;;;;4860553;29;20220;-90
2022/10/15 05:09:19;;;;;;;1.10;0.40;;;15.20;99.90;;;;;;4845616;29;20188;-90
2022/10/15 05:11:48;;;;;;;0.87;0.53;;;15.20;99.90;;;;;;4861127;29;20216;-90
2022/10/15 05:14:14;;;;;;;1.60;0.47;;;15.20;99.90;;;;;;4860446;29;20204;-87
2022/10/15 05:16:40;;;;;;;0.40;0.40;;;15.20;99.90;;;;;;4860867;29;20279;-86
2022/10/15 05:19:07;;;;;;;2.60;0.47;;;15.20;99.90;;;;;;4860596;29;20267;-87
2022/10/15 05:21:36;;;;;;;2.30;0.50;;;15.20;99.90;;;;;;4863346;29;20208;-87
2022/10/15 05:24:09;;;;;;;0.50;0.50;;;15.20;99.90;;;;;;4878982;29;20180;-87
2022/10/15 05:26:48;;;;;;;0.53;0.40;;;15.20;99.90;;;;;;4878593;29;20305;-87
2022/10/15 05:29:15;;;;;;;1.03;0.50;;;15.20;99.90;;;;;;4878902;29;20191;-88
2022/10/15 05:31:41;;;;;;;1.40;0.50;;;15.20;99.90;;;;;;4866345;29;20216;-89
2022/10/15 05:34:14;;;;;;;1.30;0.40;;;15.20;99.90;;;;;;4860384;29;20352;-89
2022/10/15 05:36:49;;;;;;;2.03;0.70;;;15.20;99.90;;;;;;4860108;29;20252;-88
2022/10/15 05:39:15;;;;;;;0.50;0.50;;;15.20;99.90;;;;;;4861366;29;20180;-88
2022/10/15 05:41:48;;;;;;;0.60;0.60;;;15.20;99.90;;;;;;4861403;29;20204;-88
2022/10/15 05:44:14;;;;;;;0.93;0.50;;;15.10;99.90;;;;;;4859849;29;20635;-88
2022/10/15 05:46:40;;;;;;;2.10;0.50;;;15.10;99.90;;;;;;4875171;29;20185;-88
2022/10/15 05:49:06;;;;;;;1.83;0.47;;;15.10;99.90;;;;;;4860441;29;20193;-89
2022/10/15 05:51:44;;;;;;;1.43;0.50;;;15.10;99.90;;;;;;4860045;29;20240;-88
2022/10/15 05:54:17;;;;;;;0.57;0.57;;;15.10;99.90;;;;;;4859905;29;20345;-89
2022/10/15 05:56:43;;;;;;;1.90;0.50;;;15.20;99.90;;;;;;4860334;29;20255;-89
2022/10/15 05:59:09;;;;;;;1.30;0.57;;;15.20;99.90;;;;;;4875588;29;20333;-88
2022/10/15 06:01:36;;;;;;;0.80;0.60;;;15.10;99.90;;;;;;4859408;29;20228;-89
2022/10/15 06:04:09;;;;;;;0.87;0.50;;;15.10;99.90;;;;;;4860758;29;20197;-88
2022/10/15 06:06:34;;;;;;;2.60;0.60;;;15.20;99.90;;;;;;4844158;29;20172;-88
2022/10/15 06:09:01;;;;;;;0.93;0.77;;;15.20;99.90;;;;;;4843988;29;20253;-87
2022/10/15 06:11:26;;;;;;;0.60;0.60;;;15.10;99.90;;;;;;4844225;29;20262;-88
2022/10/15 06:13:52;;;;;;;0.70;0.50;;;15.10;99.90;;;;;;4844100;29;20204;-88
2022/10/15 06:16:18;;;;;;;1.63;0.60;;;15.10;99.90;;;;;;4844194;29;20261;-83
2022/10/15 06:18:55;;;;;;;0.83;0.60;;;15.10;99.90;;;;;;4839513;29;20200;-83
2022/10/15 06:21:22;;;;;;;0.80;0.70;;;15.10;99.90;;;;;;4859633;29;20251;-87
2022/10/15 06:23:51;;;;;;;2.20;0.60;;;15.20;99.90;;;;;;4860114;29;20175;-92
2022/10/15 06:26:16;;;;;;;0.60;0.60;;;15.10;99.90;;;;;;4867646;29;20254;-87
2022/10/15 06:28:46;;;;;;;1.23;0.80;;;15.10;99.90;;;;;;4857906;29;20204;-85
2022/10/15 06:31:12;;;;;;;1.17;0.80;;;15.20;99.90;;;;;;4858549;29;20542;-82
2022/10/15 06:33:38;;;;;;;0.97;0.60;;;15.20;99.90;;;;;;4859380;29;20267;-87
2022/10/15 06:36:07;;;;;;;0.93;0.93;;;15.10;99.90;;;;;;4858766;29;20228;-77
2022/10/15 06:38:33;;;;;;;1.47;0.70;;;15.20;99.90;;;;;;4858681;29;20196;-77
2022/10/15 06:41:02;;;;;;;0.73;0.43;;;15.10;99.90;;;;;;4859229;29;20208;-87
2022/10/15 06:43:31;;;;;;;0.80;0.80;;;15.20;99.90;;;;;;4859065;29;20189;-87
2022/10/15 06:45:58;;;;;;;0.80;0.80;;;15.20;99.90;;;;;;4862336;29;20221;-87
2022/10/15 06:48:24;;;;;;;1.57;0.60;;;15.20;99.90;;;;;;4862439;29;20184;-87
2022/10/15 06:50:50;;;;;;;1.53;0.60;;;15.30;99.90;;;;;;4878116;29;20216;-88
2022/10/15 06:53:16;;;;;;;2.10;0.50;;;15.30;99.90;;;;;;4862116;29;20200;-87
2022/10/15 06:55:42;;;;;;;1.47;0.63;;;15.20;99.90;;;;;;4862456;29;20215;-87
2022/10/15 06:58:08;;;;;;;1.17;0.80;;;15.20;99.90;;;;;;4873609;29;20185;-88
2022/10/15 07:00:34;;;;;;;0.40;0.40;;;15.20;99.90;;;;;;4862881;29;20236;-89
2022/10/15 07:03:04;;;;;;;1.60;0.80;;;15.20;99.90;;;;;;4865832;29;20207;-87
2022/10/15 07:05:31;;;;;;;1.83;1.67;;;15.20;99.90;;;;;;4873747;29;20209;-89
2022/10/15 07:07:57;;;;;;;1.57;1.23;;;15.30;99.90;;;;;;4863398;29;20653;-87
2022/10/15 07:10:24;;;;;;;2.70;1.60;;;15.30;99.90;;;;;;4880067;29;20221;-87
2022/10/15 07:12:50;;;;;;;1.80;1.23;;;15.30;99.90;;;;;;4865548;29;20744;-88
2022/10/15 07:15:17;;;;;;;3.27;1.27;;;15.30;99.90;;;;;;4865937;29;20347;-88
2022/10/15 07:17:50;;;;;;;1.67;1.00;;;15.30;99.90;;;;;;4881476;29;20184;-87
2022/10/15 07:20:31;;;;;;;2.30;1.30;;;15.30;99.90;;;;;;4865733;29;20272;-88
2022/10/15 07:23:00;;;;;;;0.97;0.83;;;15.30;99.90;;;;;;4865740;29;20215;-87
2022/10/15 07:25:30;;;;;;;0.93;0.70;;;15.30;99.90;;;;;;4881214;29;20248;-81
2022/10/15 07:27:56;;;;;;;1.27;0.77;;;15.20;99.90;;;;;;4866818;29;20669;-86
2022/10/15 07:30:26;;;;;;;0.60;0.60;;;15.30;99.90;;;;;;4848312;29;20280;-87
2022/10/15 07:32:52;;;;;;;1.00;0.63;;;15.30;99.90;;;;;;4861869;29;20217;-87
2022/10/15 07:35:18;;;;;;;0.70;0.70;;;15.30;99.90;;;;;;4862208;29;20244;-87
2022/10/15 07:37:46;;;;;;;1.03;0.80;;;15.30;99.90;;;;;;4862332;29;20589;-87
2022/10/15 07:40:12;;;;;;;2.70;1.07;;;15.40;99.90;;;;;;4843875;29;20185;-87
2022/10/15 07:42:39;;;;;;;2.50;0.80;;;15.40;99.90;;;;;;4860344;29;20272;-87
2022/10/15 07:45:06;;;;;;;2.00;1.60;;;15.40;99.90;;;;;;4862903;29;20280;-87
2022/10/15 07:47:31;;;;;;;1.30;1.20;;;15.40;99.90;;;;;;4864397;29;20697;-87
2022/10/15 07:49:57;;;;;;;1.00;0.90;;;15.50;99.90;;;;;;4862956;29;20193;-87
2022/10/15 07:52:23;;;;;;;1.47;1.10;;;15.50;99.90;;;;;;4862207;29;20241;-87
2022/10/15 07:54:49;;;;;;;1.80;1.30;;;15.50;99.90;;;;;;4878480;29;20212;-87
2022/10/15 07:57:16;;;;;;;1.58;1.00;;;15.60;99.90;;;;;;4862087;29;20203;-86
2022/10/15 07:59:42;;;;;;;1.83;1.25;;;15.70;99.90;;;;;;4865577;29;20188;-83
2022/10/15 08:02:15;;;;;;;1.67;0.97;;;15.70;99.90;;;;;;4857438;29;20207;-85
2022/10/15 08:04:41;;;;;;;2.87;1.00;;;15.80;99.90;;;;;;4865347;29;20204;-87
2022/10/15 08:07:32;;;;;;;1.13;0.80;;;15.80;99.90;;;;;;4881433;29;20193;-87
2022/10/15 08:10:00;;;;;;;0.80;0.63;;;15.90;99.90;;;;;;4863291;29;20233;-88
2022/10/15 08:12:40;;;;;;;0.90;0.80;;;15.90;99.90;;;;;;4861763;29;20200;-87
2022/10/15 08:15:06;;;;;;;0.98;0.70;;;15.90;99.90;;;;;;4858237;29;20229;-87
2022/10/15 08:17:32;;;;;;;0.98;0.77;;;16.00;99.90;;;;;;4843369;29;20219;-87
2022/10/15 08:19:58;;;;;;;0.87;0.60;;;16.00;99.90;;;;;;4843462;29;20635;-87
2022/10/15 08:22:24;;;;;;;0.77;0.60;;;16.10;99.90;;;;;;4849817;29;20205;-82
2022/10/15 08:25:04;;;;;;;1.37;0.50;;;16.10;99.90;;;;;;4864070;29;20184;-87
2022/10/15 08:27:30;;;;;;;1.10;0.75;;;16.20;99.90;;;;;;4873815;29;20187;-87
2022/10/15 08:29:57;;;;;;;0.50;0.47;;;16.30;99.90;;;;;;4860856;29;20184;-87
2022/10/15 08:32:25;;;;;;;0.50;0.50;;;16.40;99.90;;;;;;4870223;29;20216;-87
2022/10/15 08:34:50;;;;;;;1.33;0.50;;;16.50;99.90;;;;;;4880087;29;20223;-87
2022/10/15 08:37:16;;;;;;;0.57;0.57;;;16.60;99.90;;;;;;4864286;29;20191;-87
2022/10/15 08:39:42;;;;;;;0.32;0.32;;;16.80;99.90;;;;;;4864317;29;20188;-87
2022/10/15 08:42:35;;;;;;;0.82;0.40;;;16.90;99.90;;;;;;4864090;29;20282;-86
2022/10/15 08:45:06;;;;;;;0.98;0.40;;;17.00;99.90;;;;;;4864248;29;20176;-88
2022/10/15 08:47:42;;;;;;;1.10;0.50;;;17.00;99.90;;;;;;4851002;29;20325;-88
2022/10/15 08:50:39;;;;;;;0.60;0.40;;;17.10;99.90;;;;;;4845966;29;20267;-88
2022/10/15 08:53:05;;;;;;;0.50;0.47;;;17.10;99.90;;;;;;4845157;29;20219;-89
2022/10/15 08:55:37;;;;;;;0.98;0.40;;;17.10;99.90;;;;;;4860570;29;20248;-89
2022/10/15 08:58:30;;;;;;;0.77;0.55;;;17.10;99.90;;;;;;4859702;29;20189;-89
2022/10/15 09:01:02;;;;;;;1.05;0.40;;;17.20;99.90;;;;;;4860708;29;20188;-86
2022/10/15 09:04:01;;;;;;;0.68;0.60;;;17.20;99.90;;;;;;4876138;29;20276;-86
2022/10/15 09:06:34;;;;;;;2.75;0.70;;;17.20;99.90;;;;;;4860583;29;20209;-86
2022/10/15 09:09:12;;;;;;;1.23;0.50;;;17.20;99.90;;;;;;4859781;29;20272;-84
2022/10/15 09:11:48;;;;;;;1.50;0.50;;;17.20;99.90;;;;;;4844676;29;20208;-85
2022/10/15 09:14:18;;;;;;;1.65;0.70;;;17.30;99.90;;;;;;4859817;29;20177;-84
2022/10/15 09:16:48;;;;;;;1.92;0.60;;;17.30;99.90;;;;;;4852562;29;20177;-88
2022/10/15 09:19:23;;;;;;;1.45;1.00;;;17.30;99.90;;;;;;4860185;29;20200;-88
2022/10/15 09:21:51;;;;;;;1.48;0.98;;;17.30;99.90;;;;;;4872717;29;20203;-81
2022/10/15 09:24:28;;;;;;;2.90;0.85;;;17.30;99.90;;;;;;4861284;29;20200;-81
2022/10/15 09:27:21;;;;;;;0.95;0.60;;;17.30;99.90;;;;;;4863243;29;20180;-81
2022/10/15 09:29:57;;;;;;;1.65;0.63;;;17.30;99.90;;;;;;4862809;29;20184;-81
2022/10/15 09:32:39;;;;;;;2.25;0.70;;;17.30;99.90;;;;;;4862073;29;20239;-81
2022/10/15 09:35:28;;;;;;;1.73;0.80;;;17.40;99.90;;;;;;4862356;29;20213;-81
2022/10/15 09:38:06;;;;;;;1.27;0.80;;;17.50;99.90;;;;;;4862409;29;20221;-81
2022/10/15 09:40:43;;;;;;;2.88;1.20;;;17.40;99.90;;;;;;4847122;29;20180;-81
2022/10/15 09:43:11;;;;;;;4.15;3.25;;;17.50;99.90;;;;;;4846934;29;20212;-81
2022/10/15 09:45:37;;;;;;;2.22;1.80;;;17.50;99.90;;;;;;4845594;29;20189;-86
2022/10/15 09:48:16;;;;;;;4.43;2.10;;;17.50;99.90;;;;;;4845066;29;20197;-88
2022/10/15 09:50:59;;;;;;;2.38;0.80;;;17.40;99.90;;;;;;4844507;29;20192;-88
2022/10/15 09:54:04;;;;;;;3.20;1.23;;;17.40;99.90;;;;;;4855130;29;20184;-87
2022/10/15 09:56:46;;;;;;;2.33;1.15;;;17.40;99.90;;;;;;4837716;29;20212;-87
2022/10/15 09:59:20;;;;;;;1.42;1.20;;;17.40;99.90;;;;;;4860116;29;20212;-88
2022/10/15 10:01:59;;;;;;;2.58;1.40;;;17.40;99.90;;;;;;4859566;29;20291;-87
2022/10/15 10:04:30;;;;;;;3.78;1.40;;;17.40;99.90;;;;;;4859952;29;20187;-88
2022/10/15 10:07:00;;;;;;;2.80;1.15;;;17.40;99.90;;;;;;4861237;29;20264;-87
2022/10/15 10:09:37;;;;;;;3.58;1.30;;;17.50;99.90;;;;;;4845560;29;20237;-87
2022/10/15 10:12:16;;;;;;;2.40;1.00;;;17.50;99.90;;;;;;4861845;29;20205;-88
2022/10/15 10:14:53;;;;;;;1.63;1.05;;;17.60;99.90;;;;;;4860792;29;20216;-86
2022/10/15 10:17:21;;;;;;;1.02;0.90;;;17.70;99.90;;;;;;4870148;29;20176;-87
2022/10/15 10:20:18;;;;;;;2.97;0.90;;;17.90;99.90;;;;;;4864905;29;20263;-86
2022/10/15 10:22:47;;;;;;;1.50;1.00;;;18.10;99.90;;;;;;4878860;29;20224;-87
2022/10/15 10:25:26;;;;;;;3.88;1.02;;;18.20;99.90;;;;;;4849690;29;20200;-87
2022/10/15 10:28:02;;;;;;;1.02;0.90;;;18.30;99.90;;;;;;4845829;29;20231;-87
2022/10/15 10:30:33;;;;;;;1.15;0.93;;;18.20;99.90;;;;;;4846178;29;20214;-89
2022/10/15 10:33:00;;;;;;;1.75;1.10;;;18.10;99.90;;;;;;4861085;29;20258;-88
2022/10/15 10:35:43;;;;;;;1.65;1.10;;;18.20;99.90;;;;;;4863446;29;20217;-90
2022/10/15 10:38:32;;;;;;;2.65;1.25;;;18.50;99.90;;;;;;4842224;29;20185;-90
2022/10/15 10:41:06;;;;;;;2.25;1.02;;;18.70;99.90;;;;;;4841477;29;20638;-76
2022/10/15 10:43:36;;;;;;;1.98;0.93;;;18.90;99.90;;;;;;4856796;29;20181;-77
2022/10/15 10:46:14;;;;;;;1.55;1.00;;;18.90;99.90;;;;;;4859259;29;20219;-77
2022/10/15 10:48:48;;;;;;;0.93;0.80;;;18.80;99.90;;;;;;4859281;29;20193;-77
2022/10/15 10:51:18;;;;;;;2.55;0.80;;;18.70;99.90;;;;;;4858670;29;20187;-87
2022/10/15 10:53:49;;;;;;;0.98;0.88;;;18.50;99.90;;;;;;4859335;29;20184;-87
2022/10/15 10:56:39;;;;;;;1.52;0.70;;;18.50;99.90;;;;;;4858995;29;20219;-87
2022/10/15 10:59:26;;;;;;;1.00;0.75;;;18.40;99.90;;;;;;4859216;29;20247;-87
2022/10/15 11:01:53;;;;;;;2.42;0.80;;;18.40;99.90;;;;;;4859119;29;20231;-88
2022/10/15 11:04:35;;;;;;;2.50;0.90;;;18.30;99.90;;;;;;4859419;29;20189;-87
2022/10/15 11:07:25;;;;;;;0.80;0.80;;;18.20;99.90;;;;;;4859119;29;20177;-88
2022/10/15 11:10:17;;;;;;;2.30;1.00;;;18.20;99.90;;;;;;4859217;29;20184;-88
2022/10/15 11:13:10;;;;;;;0.98;0.88;;;18.20;99.90;;;;;;4858920;29;20212;-88
2022/10/15 11:15:51;;;;;;;2.15;0.80;;;18.20;99.90;;;;;;4861484;29;20219;-88
2022/10/15 11:18:33;;;;;;;2.22;0.88;;;18.20;99.90;;;;;;4858555;29;20177;-88
2022/10/15 11:21:15;;;;;;;2.63;0.90;;;18.10;99.90;;;;;;4856137;29;20250;-88
2022/10/15 11:24:11;;;;;;;4.32;1.20;;;18.20;99.90;;;;;;4858917;29;20272;-88
2022/10/15 11:26:46;;;;;;;2.80;0.98;;;18.20;99.90;;;;;;4841134;29;20166;-88
2022/10/15 11:29:18;;;;;;;1.10;0.82;;;18.10;99.90;;;;;;4852392;29;20188;-88
2022/10/15 11:32:09;;;;;;;2.13;0.90;;;18.10;99.90;;;;;;4852613;29;20221;-88
2022/10/15 11:35:00;;;;;;;0.95;0.63;;;18.20;99.90;;;;;;4857174;29;20280;-86
2022/10/15 11:37:44;;;;;;;1.48;0.80;;;18.30;99.90;;;;;;4855842;29;20189;-85
2022/10/15 11:40:22;;;;;;;2.85;0.88;;;18.50;99.90;;;;;;4856090;29;20188;-88
2022/10/15 11:43:06;;;;;;;2.45;0.73;;;18.70;99.90;;;;;;4845533;29;20208;-88
2022/10/15 11:46:02;;;;;;;3.60;0.80;;;19.00;99.90;;;;;;4845998;29;20189;-89
2022/10/15 11:48:31;;;;;;;1.10;0.60;;;19.10;99.90;;;;;;4862151;29;20204;-88
2022/10/15 11:51:07;;;;;;;1.98;0.80;;;19.20;99.90;;;;;;4855238;29;20193;-89
2022/10/15 11:53:40;;;;;;;1.92;0.70;;;19.30;99.90;;;;;;4859814;29;20192;-89
2022/10/15 11:56:15;;;;;;;2.47;0.80;;;19.20;99.90;;;;;;4859823;29;20212;-89
2022/10/15 11:58:52;;;;;;;2.15;1.00;;;19.20;99.90;;;;;;4862276;29;20203;-89
2022/10/15 12:01:45;;;;;;;0.60;0.60;;;19.30;99.90;;;;;;4863842;29;20233;-89
2022/10/15 12:08:01;;;;;;;1.23;0.82;;;19.70;99.90;;;;;;4868310;29;20260;-89
2022/10/15 12:10:54;;;;;;;2.20;0.80;;;20.00;99.90;;;;;;4862033;29;20185;-89
2022/10/15 12:13:40;;;;;;;1.42;0.60;;;20.20;99.90;;;;;;4861733;29;20220;-89
2022/10/15 12:16:35;;;;;;;1.70;0.60;;;20.40;99.90;;;;;;4862688;29;20216;-89
2022/10/15 12:19:13;;;;;;;1.35;0.80;;;20.50;99.90;;;;;;4861628;29;20185;-89
2022/10/15 12:21:42;;;;;;;2.20;0.82;;;20.40;99.90;;;;;;4861418;29;20201;-90
2022/10/15 12:24:43;;;;;;;2.53;0.88;;;20.20;99.90;;;;;;4861483;29;20196;-90
2022/10/15 12:27:18;;;;;;;1.77;0.85;;;20.00;99.90;;;;;;4861663;29;20200;-89
2022/10/15 12:29:47;;;;;;;1.77;0.60;;;19.80;99.90;;;;;;4866864;29;20214;-89
2022/10/15 12:32:27;;;;;;;1.30;0.70;;;19.70;99.90;;;;;;4864393;29;20226;-88
2022/10/15 12:35:03;;;;;;;0.90;0.70;;;19.50;99.90;;;;;;4880082;29;20207;-77
2022/10/15 12:37:34;;;;;;;4.07;0.90;;;19.40;99.90;;;;;;4874187;29;20267;-89
2022/10/15 12:40:25;;;;;;;1.40;0.65;;;19.30;99.90;;;;;;4846776;29;20197;-88
2022/10/15 12:42:59;;;;;;;0.75;0.70;;;19.20;99.90;;;;;;4859473;29;20217;-88
2022/10/15 12:45:53;;;;;;;0.88;0.80;;;19.10;99.90;;;;;;4847074;29;20178;-89
2022/10/15 12:48:46;;;;;;;0.70;0.70;;;19.10;99.90;;;;;;4860481;29;20197;-89
2022/10/15 12:51:15;;;;;;;2.35;0.80;;;19.10;99.90;;;;;;4861117;29;20259;-89
2022/10/15 12:53:43;;;;;;;2.28;0.90;;;19.10;99.90;;;;;;4860028;29;20188;-89
2022/10/15 12:56:09;;;;;;;1.10;0.70;;;19.10;99.90;;;;;;4861539;29;20213;-88
2022/10/15 12:58:40;;;;;;;0.70;0.70;;;19.00;99.90;;;;;;4861802;29;20583;-89
2022/10/15 13:01:27;;;;;;;1.25;0.90;;;18.90;99.90;;;;;;4860931;29;20199;-89
2022/10/15 13:03:59;;;;;;;1.63;0.80;;;18.90;99.90;;;;;;4860534;29;20181;-89
2022/10/15 13:06:31;;;;;;;1.83;0.90;;;18.90;99.90;;;;;;4862616;29;20189;-88
2022/10/15 13:09:17;;;;;;;2.92;0.80;;;18.90;99.90;;;;;;4862846;29;20241;-89
2022/10/15 13:11:46;;;;;;;1.48;0.77;;;18.90;99.90;;;;;;4863126;29;20212;-90
2022/10/15 13:14:34;;;;;;;1.52;0.88;;;18.80;99.90;;;;;;4877803;29;20196;-89
2022/10/15 13:17:05;;;;;;;2.47;0.77;;;18.80;99.90;;;;;;4871759;29;20173;-90
2022/10/15 13:19:37;;;;;;;2.30;0.70;;;18.80;99.90;;;;;;4846689;29;20260;-90
2022/10/15 13:22:06;;;;;;;1.38;0.60;;;18.70;99.90;;;;;;4863088;29;20216;-79
2022/10/15 13:24:46;;;;;;;0.70;0.70;;;18.70;99.90;;;;;;4880347;29;20181;-78
2022/10/15 13:27:24;;;;;;;1.05;0.68;;;18.70;99.90;;;;;;4864114;29;20579;-78